Terminal Aerodrome Forecast
Issued by NWS Denver/Boulder, CO

Home | Current Version | Previous Version | Text Only | Print | Product List | Glossary On
Versions: 1 2 3 4 5 6 7 8 9 10 11 12 13 14 15 16 17 18 19 20 21 22 23 24 25 26 27 28 29 30 31 32 33 34 35 36 37 38 39 40 41 42 43 44 45 46 47 48 49 50
798
FTUS45 KBOU 260537
TAFDEN
TAF
KDEN 260537Z 2606/2712 30007KT P6SM SCT100 BKN140 OVC200
     FM261200 35010KT P6SM BKN030 OVC090
     FM261400 02007KT P6SM BKN035 OVC070
     FM262000 04010KT P6SM BKN050 OVC070
     FM262200 07011KT P6SM VCSH SCT060 BKN090
     FM270300 15010KT P6SM SCT050 BKN090=

USA.gov is the U.S. government's official web portal to all federal, state and local government web resources and services.